N1011T KPIE-KPIE
Flight info
| Callsign | N1011T |
|---|---|
| Flight time | 0h 15m |
| Altitude | 2500 |
| Route | NEW PILOT KPIE/22 DCT LAFAL DCT |
| Aircraft | N101/L-V/N |
Departure
| Time | 2026-05-09 00:43 |
|---|---|
| Airport | St. Petersburg Clearwater International Airport (KPIE) |
Arrival
| Time | 2026-05-09 00:58 |
|---|---|
| Airport | St. Petersburg Clearwater International Airport (KPIE) |
| Time | Latitude | Longitude | Altitude | Speed | Heading |
|---|---|---|---|---|---|
| 2026-05-09 00:20 | 27.91134 | -82.69215 | 15 ft | 0 kts | 347° |
| 2026-05-09 00:32 | 27.91137 | -82.69219 | 15 ft | 0 kts | 299° |
| 2026-05-09 00:33 | 27.91129 | -82.69225 | 15 ft | 2 kts | 147° |
| 2026-05-09 00:33 | 27.91104 | -82.69196 | 15 ft | 6 kts | 131° |
| 2026-05-09 00:33 | 27.91100 | -82.69191 | 15 ft | 0 kts | 131° |
| 2026-05-09 00:34 | 27.91078 | -82.69157 | 14 ft | 13 kts | 123° |
| 2026-05-09 00:35 | 27.91026 | -82.69083 | 12 ft | 11 kts | 136° |
| 2026-05-09 00:35 | 27.90977 | -82.69022 | 13 ft | 11 kts | 131° |
| 2026-05-09 00:35 | 27.90905 | -82.68982 | 15 ft | 12 kts | 173° |
| 2026-05-09 00:35 | 27.90859 | -82.68976 | 16 ft | 2 kts | 172° |
| 2026-05-09 00:36 | 27.90857 | -82.68975 | 16 ft | 0 kts | 172° |
| 2026-05-09 00:37 | 27.90845 | -82.68973 | 16 ft | 7 kts | 172° |
| 2026-05-09 00:37 | 27.90742 | -82.68958 | 16 ft | 20 kts | 171° |
| 2026-05-09 00:38 | 27.90618 | -82.68936 | 16 ft | 16 kts | 171° |
| 2026-05-09 00:38 | 27.90501 | -82.68912 | 17 ft | 19 kts | 171° |
| 2026-05-09 00:38 | 27.90357 | -82.68886 | 16 ft | 23 kts | 171° |
| 2026-05-09 00:38 | 27.90205 | -82.68862 | 15 ft | 16 kts | 174° |
| 2026-05-09 00:39 | 27.90171 | -82.68861 | 15 ft | 0 kts | 183° |
| 2026-05-09 00:40 | 27.90164 | -82.68861 | 14 ft | 6 kts | 182° |
| 2026-05-09 00:41 | 27.90132 | -82.68792 | 14 ft | 5 kts | 38° |
| 2026-05-09 00:41 | 27.90264 | -82.68668 | 16 ft | 48 kts | 39° |
| 2026-05-09 00:41 | 27.90627 | -82.68322 | 20 ft | 84 kts | 42° |
| 2026-05-09 00:41 | 27.91109 | -82.67896 | 121 ft | 92 kts | 36° |
| 2026-05-09 00:42 | 27.91600 | -82.67480 | 232 ft | 90 kts | 34° |
| 2026-05-09 00:42 | 27.92139 | -82.67247 | 392 ft | 76 kts | 347° |
| 2026-05-09 00:42 | 27.92436 | -82.67411 | 531 ft | 67 kts | 312° |
| 2026-05-09 00:42 | 27.92789 | -82.68084 | 589 ft | 78 kts | 290° |
| 2026-05-09 00:43 | 27.92802 | -82.68709 | 686 ft | 87 kts | 269° |
| 2026-05-09 00:43 | 27.92716 | -82.69340 | 893 ft | 82 kts | 261° |
| 2026-05-09 00:43 | 27.92631 | -82.69755 | 986 ft | 80 kts | 264° |
| 2026-05-09 00:43 | 27.92487 | -82.70414 | 1056 ft | 94 kts | 263° |
| 2026-05-09 00:44 | 27.92319 | -82.71123 | 1231 ft | 90 kts | 259° |
| 2026-05-09 00:44 | 27.92140 | -82.71800 | 1274 ft | 94 kts | 259° |
| 2026-05-09 00:44 | 27.91976 | -82.72516 | 1353 ft | 95 kts | 262° |
| 2026-05-09 00:44 | 27.91867 | -82.73262 | 1430 ft | 91 kts | 268° |
| 2026-05-09 00:45 | 27.91758 | -82.73999 | 1409 ft | 101 kts | 262° |
| 2026-05-09 00:45 | 27.91630 | -82.74778 | 1455 ft | 102 kts | 265° |
| 2026-05-09 00:45 | 27.91480 | -82.75563 | 1470 ft | 104 kts | 262° |
| 2026-05-09 00:45 | 27.91323 | -82.76307 | 1631 ft | 93 kts | 262° |
| 2026-05-09 00:46 | 27.91176 | -82.77049 | 1600 ft | 101 kts | 264° |
| 2026-05-09 00:46 | 27.91060 | -82.77807 | 1645 ft | 98 kts | 263° |
| 2026-05-09 00:46 | 27.90938 | -82.78578 | 1636 ft | 101 kts | 264° |
| 2026-05-09 00:46 | 27.90826 | -82.79368 | 1642 ft | 102 kts | 264° |
| 2026-05-09 00:47 | 27.90704 | -82.80173 | 1644 ft | 104 kts | 263° |
| 2026-05-09 00:47 | 27.90559 | -82.80984 | 1644 ft | 109 kts | 261° |
| 2026-05-09 00:47 | 27.90414 | -82.81812 | 1638 ft | 105 kts | 262° |
| 2026-05-09 00:47 | 27.90271 | -82.82617 | 1633 ft | 103 kts | 263° |
| 2026-05-09 00:48 | 27.90123 | -82.83408 | 1637 ft | 102 kts | 262° |
| 2026-05-09 00:48 | 27.89973 | -82.84192 | 1629 ft | 102 kts | 262° |
| 2026-05-09 00:48 | 27.89817 | -82.84977 | 1629 ft | 102 kts | 262° |
| 2026-05-09 00:48 | 27.89672 | -82.85764 | 1627 ft | 103 kts | 259° |
| 2026-05-09 00:49 | 27.89438 | -82.86533 | 1629 ft | 104 kts | 255° |
| 2026-05-09 00:49 | 27.89133 | -82.87279 | 1631 ft | 106 kts | 242° |
| 2026-05-09 00:49 | 27.88723 | -82.87975 | 1636 ft | 107 kts | 240° |
| 2026-05-09 00:49 | 27.88316 | -82.88682 | 1638 ft | 108 kts | 233° |
| 2026-05-09 00:50 | 27.87725 | -82.89231 | 1633 ft | 111 kts | 221° |
| 2026-05-09 00:50 | 27.87026 | -82.89535 | 1623 ft | 113 kts | 170° |
| 2026-05-09 00:50 | 27.86518 | -82.88953 | 1619 ft | 106 kts | 91° |
| 2026-05-09 00:50 | 27.86816 | -82.88308 | 1640 ft | 93 kts | 29° |
| 2026-05-09 00:51 | 27.87333 | -82.87863 | 1639 ft | 95 kts | 31° |
| 2026-05-09 00:51 | 27.87887 | -82.87407 | 1586 ft | 103 kts | 33° |
| 2026-05-09 00:51 | 27.88453 | -82.86879 | 1547 ft | 108 kts | 57° |
| 2026-05-09 00:51 | 27.88615 | -82.86053 | 1555 ft | 114 kts | 88° |
| 2026-05-09 00:52 | 27.88517 | -82.85164 | 1495 ft | 117 kts | 96° |
| 2026-05-09 00:52 | 27.88392 | -82.84288 | 1575 ft | 111 kts | 100° |
| 2026-05-09 00:52 | 27.88162 | -82.83451 | 1565 ft | 112 kts | 108° |
| 2026-05-09 00:52 | 27.87716 | -82.82709 | 1501 ft | 117 kts | 132° |
| 2026-05-09 00:53 | 27.87331 | -82.81955 | 1541 ft | 107 kts | 85° |
| 2026-05-09 00:53 | 27.87690 | -82.81340 | 1606 ft | 95 kts | 30° |
| 2026-05-09 00:53 | 27.88215 | -82.80879 | 1601 ft | 96 kts | 35° |
| 2026-05-09 00:53 | 27.88751 | -82.80420 | 1598 ft | 98 kts | 33° |
| 2026-05-09 00:54 | 27.89011 | -82.79725 | 1598 ft | 109 kts | 103° |
| 2026-05-09 00:54 | 27.88614 | -82.78986 | 1590 ft | 112 kts | 128° |
| 2026-05-09 00:54 | 27.88089 | -82.78335 | 1546 ft | 115 kts | 133° |
| 2026-05-09 00:54 | 27.87495 | -82.77687 | 1542 ft | 116 kts | 134° |
| 2026-05-09 00:55 | 27.87077 | -82.76970 | 1596 ft | 111 kts | 112° |
| 2026-05-09 00:55 | 27.86944 | -82.76110 | 1564 ft | 113 kts | 81° |
| 2026-05-09 00:55 | 27.86943 | -82.75165 | 1439 ft | 119 kts | 87° |
| 2026-05-09 00:55 | 27.86930 | -82.74167 | 1235 ft | 133 kts | 88° |
| 2026-05-09 00:56 | 27.86807 | -82.73207 | 1371 ft | 109 kts | 92° |
| 2026-05-09 00:56 | 27.86802 | -82.72415 | 1472 ft | 96 kts | 75° |
| 2026-05-09 00:56 | 27.87068 | -82.71771 | 1365 ft | 88 kts | 49° |
| 2026-05-09 00:56 | 27.87492 | -82.71226 | 1028 ft | 101 kts | 35° |
| 2026-05-09 00:57 | 27.88033 | -82.70706 | 782 ft | 101 kts | 37° |
| 2026-05-09 00:57 | 27.88563 | -82.70186 | 483 ft | 100 kts | 35° |
| 2026-05-09 00:57 | 27.89120 | -82.69682 | 289 ft | 99 kts | 36° |
| 2026-05-09 00:57 | 27.89640 | -82.69224 | 145 ft | 93 kts | 36° |
| 2026-05-09 00:58 | 27.90155 | -82.68768 | 31 ft | 95 kts | 40° |
| 2026-05-09 00:58 | 27.90585 | -82.68363 | 18 ft | 59 kts | 39° |
| 2026-05-09 00:58 | 27.90841 | -82.68130 | 15 ft | 36 kts | 34° |
| 2026-05-09 00:58 | 27.90979 | -82.68003 | 15 ft | 22 kts | 39° |
| 2026-05-09 00:59 | 27.91084 | -82.67903 | 18 ft | 17 kts | 41° |
| 2026-05-09 00:59 | 27.91176 | -82.67813 | 19 ft | 18 kts | 40° |
| 2026-05-09 00:59 | 27.91249 | -82.67775 | 19 ft | 9 kts | 342° |
| 2026-05-09 00:59 | 27.91278 | -82.67803 | 18 ft | 0 kts | 307° |
| 2026-05-09 01:02 | 27.91282 | -82.67809 | 18 ft | 5 kts | 303° |
| 2026-05-09 01:02 | 27.91261 | -82.67867 | 18 ft | 12 kts | 219° |
| 2026-05-09 01:02 | 27.91186 | -82.67939 | 18 ft | 16 kts | 221° |
| 2026-05-09 01:02 | 27.91088 | -82.68031 | 15 ft | 19 kts | 218° |
| 2026-05-09 01:03 | 27.90991 | -82.68119 | 14 ft | 16 kts | 223° |
| 2026-05-09 01:03 | 27.90914 | -82.68198 | 14 ft | 15 kts | 218° |
| 2026-05-09 01:03 | 27.90832 | -82.68276 | 14 ft | 17 kts | 219° |
| 2026-05-09 01:03 | 27.90731 | -82.68369 | 17 ft | 19 kts | 219° |
| 2026-05-09 01:04 | 27.90631 | -82.68463 | 17 ft | 18 kts | 219° |
| 2026-05-09 01:04 | 27.90568 | -82.68556 | 17 ft | 13 kts | 294° |
| 2026-05-09 01:04 | 27.90610 | -82.68646 | 18 ft | 15 kts | 297° |
| 2026-05-09 01:04 | 27.90647 | -82.68725 | 19 ft | 15 kts | 298° |
| 2026-05-09 01:05 | 27.90715 | -82.68835 | 18 ft | 4 kts | 312° |
| 2026-05-09 01:05 | 27.90744 | -82.68876 | 17 ft | 12 kts | 312° |
| 2026-05-09 01:05 | 27.90823 | -82.68976 | 16 ft | 12 kts | 311° |
| 2026-05-09 01:06 | 27.90857 | -82.69069 | 15 ft | 14 kts | 348° |
| 2026-05-09 01:06 | 27.90950 | -82.69010 | 14 ft | 14 kts | 322° |
| 2026-05-09 01:06 | 27.91026 | -82.69090 | 13 ft | 16 kts | 309° |
| 2026-05-09 01:06 | 27.91106 | -82.69197 | 15 ft | 18 kts | 308° |
| 2026-05-09 01:07 | 27.91138 | -82.69224 | 15 ft | 0 kts | 37° |